CheckWX is a tool to help pilots better visualize weather data.  It is not intended as a substitute for an official pre-flight weather briefing.

21:04:30 UTC

KAAA METAR
Logan County Airport
Lincoln, Illinois, USA
Current

10 mins ago

KAAA 232055Z AUTO 29003KT 10SM CLR 26/15 A3007 RMK AO2 T02580153
Observed
May-23 @ 20:55 UTC
Wind
  • 290° at 3 KTS
Visibility
10 SM
Flight Rules
VFR
Cloud Levels
  • Clear skies
Temperature
26°C / 79°F
Dewpoint
15°C / 59°F
Humidity
51%
Altimeter
30.07" Hg
Pressure
1018.32 hPa
Previous

30 mins ago

KAAA 232035Z AUTO 29003KT 10SM CLR 26/16 A3007 RMK AO2 T02580160
Observed
May-23 @ 20:35 UTC
Wind
  • 290° at 3 KTS
Visibility
10 SM
Flight Rules
VFR
Cloud Levels
  • Clear skies
Temperature
26°C / 79°F
Dewpoint
16°C / 61°F
Humidity
54%
Altimeter
30.07" Hg
Pressure
1018.32 hPa
Previous

2 hours ago

KAAA 231915Z AUTO 29005KT 10SM CLR 25/15 A3008 RMK AO2 T02470153
Observed
May-23 @ 19:15 UTC
Wind
  • 290° at 5 KTS
Visibility
10 SM
Flight Rules
VFR
Cloud Levels
  • Clear skies
Temperature
25°C / 77°F
Dewpoint
15°C / 59°F
Humidity
54%
Altimeter
30.08" Hg
Pressure
1018.62 hPa